sensor_id;sensor_type;location;lat;lon;timestamp;pressure;altitude;pressure_sealevel;temperature;humidity
74790;BME280;63318;52.406;13.416;2023-03-01T00:01:15;102786.09;;;-3.15;72.41
74790;BME280;63318;52.406;13.416;2023-03-01T00:03:44;102784.35;;;-3.18;72.47
74790;BME280;63318;52.406;13.416;2023-03-01T00:06:13;102785.00;;;-3.19;72.60
74790;BME280;63318;52.406;13.416;2023-03-01T00:08:41;102778.66;;;-3.21;72.59
74790;BME280;63318;52.406;13.416;2023-03-01T00:11:14;102778.45;;;-3.23;72.63
74790;BME280;63318;52.406;13.416;2023-03-01T00:13:43;102777.11;;;-3.24;72.83
74790;BME280;63318;52.406;13.416;2023-03-01T00:16:14;102769.70;;;-3.26;72.79
74790;BME280;63318;52.406;13.416;2023-03-01T00:18:42;102767.42;;;-3.27;73.00
74790;BME280;63318;52.406;13.416;2023-03-01T00:21:11;102763.81;;;-3.29;73.13
74790;BME280;63318;52.406;13.416;2023-03-01T00:23:40;102764.28;;;-3.31;73.02
74790;BME280;63318;52.406;13.416;2023-03-01T00:26:11;102760.45;;;-3.32;73.04
74790;BME280;63318;52.406;13.416;2023-03-01T00:28:40;102763.95;;;-3.33;73.21
74790;BME280;63318;52.406;13.416;2023-03-01T00:31:11;102762.71;;;-3.35;73.22
74790;BME280;63318;52.406;13.416;2023-03-01T00:33:42;102762.21;;;-3.38;73.43
74790;BME280;63318;52.406;13.416;2023-03-01T00:36:12;102758.52;;;-3.41;73.43
74790;BME280;63318;52.406;13.416;2023-03-01T00:38:42;102755.42;;;-3.43;73.27
74790;BME280;63318;52.406;13.416;2023-03-01T00:41:12;102751.45;;;-3.45;73.04
74790;BME280;63318;52.406;13.416;2023-03-01T00:43:42;102748.61;;;-3.46;73.44
74790;BME280;63318;52.406;13.416;2023-03-01T00:46:12;102747.80;;;-3.47;73.29
74790;BME280;63318;52.406;13.416;2023-03-01T00:48:41;102751.04;;;-3.48;73.52
74790;BME280;63318;52.406;13.416;2023-03-01T00:51:11;102752.42;;;-3.50;73.45
74790;BME280;63318;52.406;13.416;2023-03-01T00:53:40;102746.98;;;-3.52;73.59
74790;BME280;63318;52.406;13.416;2023-03-01T00:56:14;102745.59;;;-3.55;73.63
74790;BME280;63318;52.406;13.416;2023-03-01T00:58:43;102741.86;;;-3.58;73.85
74790;BME280;63318;52.406;13.416;2023-03-01T01:01:14;102740.34;;;-3.59;73.85
74790;BME280;63318;52.406;13.416;2023-03-01T01:03:42;102737.88;;;-3.60;73.76
74790;BME280;63318;52.406;13.416;2023-03-01T01:06:16;102741.27;;;-3.61;73.53
74790;BME280;63318;52.406;13.416;2023-03-01T01:08:45;102743.68;;;-3.62;73.84
74790;BME280;63318;52.406;13.416;2023-03-01T01:11:15;102749.53;;;-3.65;74.01
74790;BME280;63318;52.406;13.416;2023-03-01T01:13:45;102736.92;;;-3.67;73.98
74790;BME280;63318;52.406;13.416;2023-03-01T01:16:15;102736.11;;;-3.70;73.70
74790;BME280;63318;52.406;13.416;2023-03-01T01:18:44;102732.59;;;-3.74;73.96
74790;BME280;63318;52.406;13.416;2023-03-01T01:21:14;102731.70;;;-3.76;73.82
74790;BME280;63318;52.406;13.416;2023-03-01T01:23:44;102727.05;;;-3.79;73.75
74790;BME280;63318;52.406;13.416;2023-03-01T01:26:14;102723.29;;;-3.81;74.01
74790;BME280;63318;52.406;13.416;2023-03-01T01:28:43;102717.84;;;-3.83;73.98
74790;BME280;63318;52.406;13.416;2023-03-01T01:31:13;102719.77;;;-3.84;74.22
74790;BME280;63318;52.406;13.416;2023-03-01T01:33:41;102723.50;;;-3.85;74.25
74790;BME280;63318;52.406;13.416;2023-03-01T01:36:10;102723.13;;;-3.87;74.14
74790;BME280;63318;52.406;13.416;2023-03-01T01:38:39;102721.98;;;-3.89;74.38
74790;BME280;63318;52.406;13.416;2023-03-01T01:41:08;102714.05;;;-3.89;74.65
74790;BME280;63318;52.406;13.416;2023-03-01T01:43:39;102715.23;;;-3.90;74.67
74790;BME280;63318;52.406;13.416;2023-03-01T01:46:17;102711.52;;;-3.91;74.44
74790;BME280;63318;52.406;13.416;2023-03-01T01:48:52;102710.58;;;-3.93;74.43
74790;BME280;63318;52.406;13.416;2023-03-01T01:51:25;102711.67;;;-3.95;74.44
74790;BME280;63318;52.406;13.416;2023-03-01T01:53:59;102719.23;;;-3.97;74.36
74790;BME280;63318;52.406;13.416;2023-03-01T01:56:30;102719.74;;;-3.98;74.64
74790;BME280;63318;52.406;13.416;2023-03-01T01:58:58;102718.98;;;-4.00;74.50
74790;BME280;63318;52.406;13.416;2023-03-01T02:01:27;102721.27;;;-4.01;74.72
74790;BME280;63318;52.406;13.416;2023-03-01T02:03:55;102722.95;;;-4.02;74.68
74790;BME280;63318;52.406;13.416;2023-03-01T02:06:28;102717.27;;;-4.03;74.46
74790;BME280;63318;52.406;13.416;2023-03-01T02:09:03;102717.00;;;-4.04;74.67
74790;BME280;63318;52.406;13.416;2023-03-01T02:11:33;102720.45;;;-4.06;74.98
74790;BME280;63318;52.406;13.416;2023-03-01T02:14:02;102717.98;;;-4.07;74.91
74790;BME280;63318;52.406;13.416;2023-03-01T02:16:31;102715.23;;;-4.09;74.76
74790;BME280;63318;52.406;13.416;2023-03-01T02:18:59;102717.34;;;-4.10;74.74
74790;BME280;63318;52.406;13.416;2023-03-01T02:21:41;102715.81;;;-4.11;74.68
74790;BME280;63318;52.406;13.416;2023-03-01T02:24:18;102713.30;;;-4.14;74.85
74790;BME280;63318;52.406;13.416;2023-03-01T02:26:48;102711.80;;;-4.17;74.94
74790;BME280;63318;52.406;13.416;2023-03-01T02:29:17;102708.55;;;-4.19;75.17
74790;BME280;63318;52.406;13.416;2023-03-01T02:31:46;102705.95;;;-4.23;75.10
74790;BME280;63318;52.406;13.416;2023-03-01T02:34:17;102709.41;;;-4.26;75.17
74790;BME280;63318;52.406;13.416;2023-03-01T02:36:48;102707.44;;;-4.28;75.00
74790;BME280;63318;52.406;13.416;2023-03-01T02:39:20;102708.92;;;-4.30;74.97
74790;BME280;63318;52.406;13.416;2023-03-01T02:41:52;102709.38;;;-4.33;74.99
74790;BME280;63318;52.406;13.416;2023-03-01T02:44:20;102714.10;;;-4.36;75.21
74790;BME280;63318;52.406;13.416;2023-03-01T02:46:51;102718.84;;;-4.38;75.10
74790;BME280;63318;52.406;13.416;2023-03-01T02:49:25;102724.37;;;-4.42;75.15
74790;BME280;63318;52.406;13.416;2023-03-01T02:54:56;102716.95;;;-4.46;75.40
74790;BME280;63318;52.406;13.416;2023-03-01T02:57:27;102718.18;;;-4.48;75.38
74790;BME280;63318;52.406;13.416;2023-03-01T02:59:59;102718.69;;;-4.49;75.60
74790;BME280;63318;52.406;13.416;2023-03-01T03:02:31;102714.39;;;-4.50;75.40
74790;BME280;63318;52.406;13.416;2023-03-01T03:04:59;102709.39;;;-4.50;75.54
74790;BME280;63318;52.406;13.416;2023-03-01T03:07:27;102705.35;;;-4.52;75.36
74790;BME280;63318;52.406;13.416;2023-03-01T03:09:55;102702.69;;;-4.52;75.43
74790;BME280;63318;52.406;13.416;2023-03-01T03:12:24;102699.83;;;-4.53;75.61
74790;BME280;63318;52.406;13.416;2023-03-01T03:14:52;102702.13;;;-4.54;75.73
74790;BME280;63318;52.406;13.416;2023-03-01T03:17:20;102704.85;;;-4.57;75.45
74790;BME280;63318;52.406;13.416;2023-03-01T03:19:48;102705.15;;;-4.58;75.28
74790;BME280;63318;52.406;13.416;2023-03-01T03:22:17;102701.39;;;-4.60;75.14
74790;BME280;63318;52.406;13.416;2023-03-01T03:24:45;102699.94;;;-4.62;75.10
74790;BME280;63318;52.406;13.416;2023-03-01T03:27:13;102695.69;;;-4.66;75.31
74790;BME280;63318;52.406;13.416;2023-03-01T03:29:41;102696.38;;;-4.67;75.64
74790;BME280;63318;52.406;13.416;2023-03-01T03:32:09;102698.48;;;-4.69;75.73
74790;BME280;63318;52.406;13.416;2023-03-01T03:34:38;102693.73;;;-4.70;75.75
74790;BME280;63318;52.406;13.416;2023-03-01T03:37:06;102689.91;;;-4.72;75.72
74790;BME280;63318;52.406;13.416;2023-03-01T03:39:34;102681.52;;;-4.73;76.05
74790;BME280;63318;52.406;13.416;2023-03-01T03:42:02;102682.34;;;-4.74;75.76
74790;BME280;63318;52.406;13.416;2023-03-01T03:44:30;102679.36;;;-4.75;75.86
74790;BME280;63318;52.406;13.416;2023-03-01T03:46:59;102681.16;;;-4.78;76.13
74790;BME280;63318;52.406;13.416;2023-03-01T03:49:27;102675.30;;;-4.79;75.80
74790;BME280;63318;52.406;13.416;2023-03-01T03:51:55;102671.83;;;-4.80;75.70
74790;BME280;63318;52.406;13.416;2023-03-01T03:54:23;102671.02;;;-4.81;75.76
74790;BME280;63318;52.406;13.416;2023-03-01T03:56:51;102669.03;;;-4.84;75.88
74790;BME280;63318;52.406;13.416;2023-03-01T03:59:20;102669.33;;;-4.85;75.94
74790;BME280;63318;52.406;13.416;2023-03-01T04:01:48;102666.30;;;-4.88;75.96
74790;BME280;63318;52.406;13.416;2023-03-01T04:04:16;102663.71;;;-4.89;75.99
74790;BME280;63318;52.406;13.416;2023-03-01T04:06:44;102664.60;;;-4.92;76.14
74790;BME280;63318;52.406;13.416;2023-03-01T04:09:12;102664.17;;;-4.93;76.00
74790;BME280;63318;52.406;13.416;2023-03-01T04:11:40;102664.27;;;-4.94;76.26
74790;BME280;63318;52.406;13.416;2023-03-01T04:14:09;102668.17;;;-4.95;76.14
74790;BME280;63318;52.406;13.416;2023-03-01T04:16:37;102670.46;;;-4.97;76.10
74790;BME280;63318;52.406;13.416;2023-03-01T04:19:05;102669.29;;;-4.98;76.01
74790;BME280;63318;52.406;13.416;2023-03-01T04:21:34;102671.66;;;-4.98;76.05
74790;BME280;63318;52.406;13.416;2023-03-01T04:24:02;102671.02;;;-4.97;76.33
74790;BME280;63318;52.406;13.416;2023-03-01T04:26:30;102667.92;;;-4.97;76.14
74790;BME280;63318;52.406;13.416;2023-03-01T04:28:58;102663.23;;;-4.97;76.12
74790;BME280;63318;52.406;13.416;2023-03-01T04:31:27;102660.68;;;-4.97;76.25
74790;BME280;63318;52.406;13.416;2023-03-01T04:33:56;102659.15;;;-4.98;76.27
74790;BME280;63318;52.406;13.416;2023-03-01T04:36:25;102658.52;;;-4.99;76.31
74790;BME280;63318;52.406;13.416;2023-03-01T04:38:54;102657.81;;;-5.01;76.11
74790;BME280;63318;52.406;13.416;2023-03-01T04:41:24;102660.85;;;-5.03;76.44
74790;BME280;63318;52.406;13.416;2023-03-01T04:43:53;102662.80;;;-5.04;76.48
74790;BME280;63318;52.406;13.416;2023-03-01T04:46:21;102661.75;;;-5.05;76.38
74790;BME280;63318;52.406;13.416;2023-03-01T04:48:50;102658.34;;;-5.05;76.15
74790;BME280;63318;52.406;13.416;2023-03-01T04:51:18;102658.61;;;-5.06;76.56
74790;BME280;63318;52.406;13.416;2023-03-01T04:53:46;102656.13;;;-5.09;76.47
74790;BME280;63318;52.406;13.416;2023-03-01T04:56:15;102656.58;;;-5.10;76.61
74790;BME280;63318;52.406;13.416;2023-03-01T04:58:43;102656.43;;;-5.10;76.41
74790;BME280;63318;52.406;13.416;2023-03-01T05:01:13;102651.58;;;-5.11;76.52
74790;BME280;63318;52.406;13.416;2023-03-01T05:03:42;102656.16;;;-5.09;76.64
74790;BME280;63318;52.406;13.416;2023-03-01T05:06:11;102658.06;;;-5.09;76.63
74790;BME280;63318;52.406;13.416;2023-03-01T05:08:40;102649.99;;;-5.09;76.71
74790;BME280;63318;52.406;13.416;2023-03-01T05:11:10;102649.65;;;-5.09;76.64
74790;BME280;63318;52.406;13.416;2023-03-01T05:13:39;102653.83;;;-5.09;76.95
74790;BME280;63318;52.406;13.416;2023-03-01T05:16:09;102654.45;;;-5.11;76.56
74790;BME280;63318;52.406;13.416;2023-03-01T05:18:38;102657.68;;;-5.12;76.54
74790;BME280;63318;52.406;13.416;2023-03-01T05:21:08;102651.23;;;-5.15;76.64
74790;BME280;63318;52.406;13.416;2023-03-01T05:23:37;102650.29;;;-5.17;76.92
74790;BME280;63318;52.406;13.416;2023-03-01T05:26:06;102649.62;;;-5.18;77.10
74790;BME280;63318;52.406;13.416;2023-03-01T05:28:35;102652.77;;;-5.19;76.75
74790;BME280;63318;52.406;13.416;2023-03-01T05:31:04;102655.20;;;-5.19;76.97
74790;BME280;63318;52.406;13.416;2023-03-01T05:33:32;102655.48;;;-5.21;76.84
74790;BME280;63318;52.406;13.416;2023-03-01T05:36:02;102652.70;;;-5.22;76.57
74790;BME280;63318;52.406;13.416;2023-03-01T05:38:30;102646.38;;;-5.24;76.87
74790;BME280;63318;52.406;13.416;2023-03-01T05:40:58;102645.42;;;-5.23;76.84
74790;BME280;63318;52.406;13.416;2023-03-01T05:43:29;102641.61;;;-5.23;76.98
74790;BME280;63318;52.406;13.416;2023-03-01T05:45:58;102639.41;;;-5.23;77.19
74790;BME280;63318;52.406;13.416;2023-03-01T05:48:27;102638.56;;;-5.23;76.83
74790;BME280;63318;52.406;13.416;2023-03-01T05:50:57;102639.70;;;-5.24;76.74
74790;BME280;63318;52.406;13.416;2023-03-01T05:53:27;102642.05;;;-5.26;76.77
74790;BME280;63318;52.406;13.416;2023-03-01T05:55:55;102643.98;;;-5.28;76.85
74790;BME280;63318;52.406;13.416;2023-03-01T05:58:23;102648.48;;;-5.28;77.04
74790;BME280;63318;52.406;13.416;2023-03-01T06:00:52;102650.52;;;-5.28;77.02
74790;BME280;63318;52.406;13.416;2023-03-01T06:03:20;102650.71;;;-5.28;77.02
74790;BME280;63318;52.406;13.416;2023-03-01T06:05:49;102653.88;;;-5.29;77.05
74790;BME280;63318;52.406;13.416;2023-03-01T06:08:17;102650.72;;;-5.31;76.91
74790;BME280;63318;52.406;13.416;2023-03-01T06:10:45;102644.79;;;-5.31;77.11
74790;BME280;63318;52.406;13.416;2023-03-01T06:13:14;102642.80;;;-5.31;77.20
74790;BME280;63318;52.406;13.416;2023-03-01T06:15:42;102644.58;;;-5.30;77.36
74790;BME280;63318;52.406;13.416;2023-03-01T06:18:10;102642.50;;;-5.29;77.35
74790;BME280;63318;52.406;13.416;2023-03-01T06:20:39;102643.48;;;-5.28;77.33
74790;BME280;63318;52.406;13.416;2023-03-01T06:23:07;102642.29;;;-5.27;77.53
74790;BME280;63318;52.406;13.416;2023-03-01T06:25:35;102641.47;;;-5.26;77.67
74790;BME280;63318;52.406;13.416;2023-03-01T06:28:03;102643.63;;;-5.24;77.77
74790;BME280;63318;52.406;13.416;2023-03-01T06:30:32;102642.54;;;-5.21;77.60
74790;BME280;63318;52.406;13.416;2023-03-01T06:33:00;102646.11;;;-5.19;78.02
74790;BME280;63318;52.406;13.416;2023-03-01T06:35:29;102645.68;;;-5.16;78.13
74790;BME280;63318;52.406;13.416;2023-03-01T06:37:57;102648.05;;;-5.12;78.00
74790;BME280;63318;52.406;13.416;2023-03-01T06:40:26;102650.30;;;-5.08;77.89
74790;BME280;63318;52.406;13.416;2023-03-01T06:42:54;102645.14;;;-5.05;78.32
74790;BME280;63318;52.406;13.416;2023-03-01T06:45:23;102642.84;;;-5.01;78.30
74790;BME280;63318;52.406;13.416;2023-03-01T06:47:51;102643.81;;;-4.98;78.36
74790;BME280;63318;52.406;13.416;2023-03-01T06:50:20;102647.98;;;-4.93;78.57
74790;BME280;63318;52.406;13.416;2023-03-01T06:52:48;102649.02;;;-4.89;78.20
74790;BME280;63318;52.406;13.416;2023-03-01T06:55:16;102645.77;;;-4.82;78.56
74790;BME280;63318;52.406;13.416;2023-03-01T06:57:44;102643.16;;;-4.77;78.91
74790;BME280;63318;52.406;13.416;2023-03-01T07:00:15;102641.98;;;-4.72;78.76
74790;BME280;63318;52.406;13.416;2023-03-01T07:02:43;102642.89;;;-4.65;79.09
74790;BME280;63318;52.406;13.416;2023-03-01T07:05:12;102642.56;;;-4.59;79.04
74790;BME280;63318;52.406;13.416;2023-03-01T07:07:40;102644.65;;;-4.54;79.14
74790;BME280;63318;52.406;13.416;2023-03-01T07:10:10;102651.02;;;-4.48;79.22
74790;BME280;63318;52.406;13.416;2023-03-01T07:12:39;102655.71;;;-4.42;79.14
74790;BME280;63318;52.406;13.416;2023-03-01T07:15:11;102656.20;;;-4.35;79.17
74790;BME280;63318;52.406;13.416;2023-03-01T07:17:39;102658.67;;;-4.29;79.63
74790;BME280;63318;52.406;13.416;2023-03-01T07:20:09;102659.50;;;-4.21;79.67
74790;BME280;63318;52.406;13.416;2023-03-01T07:22:38;102659.27;;;-4.14;79.81
74790;BME280;63318;52.406;13.416;2023-03-01T07:25:08;102660.15;;;-4.08;79.88
74790;BME280;63318;52.406;13.416;2023-03-01T07:27:36;102658.58;;;-4.00;80.01
74790;BME280;63318;52.406;13.416;2023-03-01T07:30:07;102659.59;;;-3.93;79.79
74790;BME280;63318;52.406;13.416;2023-03-01T07:32:35;102657.66;;;-3.86;79.72
74790;BME280;63318;52.406;13.416;2023-03-01T07:35:03;102658.60;;;-3.78;79.52
74790;BME280;63318;52.406;13.416;2023-03-01T07:37:32;102662.45;;;-3.68;79.95
74790;BME280;63318;52.406;13.416;2023-03-01T07:40:00;102660.55;;;-3.60;80.22
74790;BME280;63318;52.406;13.416;2023-03-01T07:42:28;102658.59;;;-3.50;79.97
74790;BME280;63318;52.406;13.416;2023-03-01T07:44:59;102656.83;;;-3.40;79.90
74790;BME280;63318;52.406;13.416;2023-03-01T07:47:27;102659.66;;;-3.29;80.02
74790;BME280;63318;52.406;13.416;2023-03-01T07:49:56;102662.50;;;-3.19;79.43
74790;BME280;63318;52.406;13.416;2023-03-01T07:52:25;102665.45;;;-3.05;79.74
74790;BME280;63318;52.406;13.416;2023-03-01T07:54:54;102668.58;;;-2.92;79.65
74790;BME280;63318;52.406;13.416;2023-03-01T07:57:22;102661.11;;;-2.78;80.18
74790;BME280;63318;52.406;13.416;2023-03-01T07:59:51;102653.38;;;-2.63;80.19
74790;BME280;63318;52.406;13.416;2023-03-01T08:02:19;102654.65;;;-2.48;80.32
74790;BME280;63318;52.406;13.416;2023-03-01T08:04:48;102655.27;;;-2.32;80.13
74790;BME280;63318;52.406;13.416;2023-03-01T08:07:16;102649.52;;;-2.15;80.23
74790;BME280;63318;52.406;13.416;2023-03-01T08:09:44;102652.15;;;-1.99;79.80
74790;BME280;63318;52.406;13.416;2023-03-01T08:12:12;102647.39;;;-1.83;79.70
74790;BME280;63318;52.406;13.416;2023-03-01T08:14:42;102643.94;;;-1.67;79.55
74790;BME280;63318;52.406;13.416;2023-03-01T08:17:13;102648.73;;;-1.49;79.42
74790;BME280;63318;52.406;13.416;2023-03-01T08:19:42;102646.63;;;-1.29;78.68
74790;BME280;63318;52.406;13.416;2023-03-01T08:22:10;102640.44;;;-1.10;79.07
74790;BME280;63318;52.406;13.416;2023-03-01T08:24:39;102635.41;;;-0.89;78.87
74790;BME280;63318;52.406;13.416;2023-03-01T08:27:08;102628.39;;;-0.67;79.01
74790;BME280;63318;52.406;13.416;2023-03-01T08:29:36;102628.96;;;-0.47;79.16
74790;BME280;63318;52.406;13.416;2023-03-01T08:32:06;102629.98;;;-0.25;79.06
74790;BME280;63318;52.406;13.416;2023-03-01T08:34:35;102627.80;;;-0.04;78.62
74790;BME280;63318;52.406;13.416;2023-03-01T08:37:03;102628.84;;;0.17;78.33
74790;BME280;63318;52.406;13.416;2023-03-01T08:39:31;102630.80;;;0.38;77.99
74790;BME280;63318;52.406;13.416;2023-03-01T08:42:00;102628.63;;;0.60;78.16
74790;BME280;63318;52.406;13.416;2023-03-01T08:44:28;102625.59;;;0.81;77.82
74790;BME280;63318;52.406;13.416;2023-03-01T08:46:56;102628.58;;;1.04;77.32
74790;BME280;63318;52.406;13.416;2023-03-01T08:49:24;102622.48;;;1.26;77.00
74790;BME280;63318;52.406;13.416;2023-03-01T08:51:53;102625.06;;;1.49;76.35
74790;BME280;63318;52.406;13.416;2023-03-01T08:54:22;102623.39;;;1.70;76.13
74790;BME280;63318;52.406;13.416;2023-03-01T08:56:51;102621.77;;;1.91;75.51
74790;BME280;63318;52.406;13.416;2023-03-01T08:59:19;102619.19;;;2.12;75.37
74790;BME280;63318;52.406;13.416;2023-03-01T09:01:48;102621.14;;;2.35;75.18
74790;BME280;63318;52.406;13.416;2023-03-01T09:04:16;102619.92;;;2.56;74.42
74790;BME280;63318;52.406;13.416;2023-03-01T09:06:45;102616.91;;;2.77;74.01
74790;BME280;63318;52.406;13.416;2023-03-01T09:09:16;102615.97;;;2.98;73.04
74790;BME280;63318;52.406;13.416;2023-03-01T09:11:45;102613.18;;;3.18;72.51
74790;BME280;63318;52.406;13.416;2023-03-01T09:14:15;102603.73;;;3.38;71.78
74790;BME280;63318;52.406;13.416;2023-03-01T09:16:43;102601.73;;;3.57;71.10
74790;BME280;63318;52.406;13.416;2023-03-01T09:19:12;102596.36;;;3.77;71.19
74790;BME280;63318;52.406;13.416;2023-03-01T09:21:41;102594.48;;;3.96;70.76
74790;BME280;63318;52.406;13.416;2023-03-01T09:24:15;102597.58;;;4.14;70.07
74790;BME280;63318;52.406;13.416;2023-03-01T09:26:44;102595.52;;;4.33;69.76
74790;BME280;63318;52.406;13.416;2023-03-01T09:29:12;102592.55;;;4.51;68.48
74790;BME280;63318;52.406;13.416;2023-03-01T09:31:41;102592.77;;;4.70;68.15
74790;BME280;63318;52.406;13.416;2023-03-01T09:34:10;102592.92;;;4.90;67.66
74790;BME280;63318;52.406;13.416;2023-03-01T09:36:38;102585.71;;;5.10;67.16
74790;BME280;63318;52.406;13.416;2023-03-01T09:39:06;102585.50;;;5.27;66.35
74790;BME280;63318;52.406;13.416;2023-03-01T09:41:50;102582.94;;;5.44;66.90
74790;BME280;63318;52.406;13.416;2023-03-01T09:44:36;102583.80;;;5.61;64.68
74790;BME280;63318;52.406;13.416;2023-03-01T09:47:07;102576.14;;;5.77;64.49
74790;BME280;63318;52.406;13.416;2023-03-01T09:49:41;102577.29;;;5.92;64.26
74790;BME280;63318;52.406;13.416;2023-03-01T09:52:19;102578.83;;;6.08;63.46
74790;BME280;63318;52.406;13.416;2023-03-01T09:54:54;102578.93;;;6.24;63.02
74790;BME280;63318;52.406;13.416;2023-03-01T09:57:28;102579.58;;;6.38;62.31
74790;BME280;63318;52.406;13.416;2023-03-01T10:00:07;102580.95;;;6.52;62.39
74790;BME280;63318;52.406;13.416;2023-03-01T10:02:44;102580.73;;;6.64;60.25
74790;BME280;63318;52.406;13.416;2023-03-01T10:05:25;102579.17;;;6.78;60.96
74790;BME280;63318;52.406;13.416;2023-03-01T10:08:12;102582.15;;;6.93;61.02
74790;BME280;63318;52.406;13.416;2023-03-01T10:10:46;102583.63;;;7.07;59.76
74790;BME280;63318;52.406;13.416;2023-03-01T10:13:19;102574.64;;;7.17;58.20
74790;BME280;63318;52.406;13.416;2023-03-01T10:15:52;102577.33;;;7.29;59.30
74790;BME280;63318;52.406;13.416;2023-03-01T10:18:25;102576.47;;;7.39;58.89
74790;BME280;63318;52.406;13.416;2023-03-01T10:21:00;102578.19;;;7.45;58.77
74790;BME280;63318;52.406;13.416;2023-03-01T10:23:30;102574.73;;;7.57;56.57
74790;BME280;63318;52.406;13.416;2023-03-01T10:26:12;102576.28;;;7.69;58.29
74790;BME280;63318;52.406;13.416;2023-03-01T10:28:53;102575.95;;;7.81;57.25
74790;BME280;63318;52.406;13.416;2023-03-01T10:31:27;102574.69;;;7.90;55.92
74790;BME280;63318;52.406;13.416;2023-03-01T10:33:57;102573.63;;;7.98;56.36
74790;BME280;63318;52.406;13.416;2023-03-01T10:36:26;102570.82;;;8.06;56.88
74790;BME280;63318;52.406;13.416;2023-03-01T10:38:56;102566.61;;;8.15;55.46
74790;BME280;63318;52.406;13.416;2023-03-01T10:41:27;102564.20;;;8.21;55.04
74790;BME280;63318;52.406;13.416;2023-03-01T10:43:57;102560.14;;;8.30;55.23
74790;BME280;63318;52.406;13.416;2023-03-01T10:46:27;102554.93;;;8.40;53.95
74790;BME280;63318;52.406;13.416;2023-03-01T10:49:15;102552.45;;;8.50;54.82
74790;BME280;63318;52.406;13.416;2023-03-01T10:51:46;102553.33;;;8.59;53.95
74790;BME280;63318;52.406;13.416;2023-03-01T10:54:20;102551.02;;;8.58;53.44
74790;BME280;63318;52.406;13.416;2023-03-01T10:56:52;102547.98;;;8.64;53.05
74790;BME280;63318;52.406;13.416;2023-03-01T10:59:28;102548.94;;;8.71;51.74
74790;BME280;63318;52.406;13.416;2023-03-01T11:05:12;102541.19;;;8.82;52.71
74790;BME280;63318;52.406;13.416;2023-03-01T11:07:50;102537.19;;;8.91;52.05
74790;BME280;63318;52.406;13.416;2023-03-01T11:10:24;102527.92;;;9.00;52.84
74790;BME280;63318;52.406;13.416;2023-03-01T11:13:04;102523.28;;;9.11;52.63
74790;BME280;63318;52.406;13.416;2023-03-01T11:15:33;102518.17;;;9.23;52.38
74790;BME280;63318;52.406;13.416;2023-03-01T11:18:02;102520.18;;;9.32;50.76
74790;BME280;63318;52.406;13.416;2023-03-01T11:20:34;102518.27;;;9.37;49.66
74790;BME280;63318;52.406;13.416;2023-03-01T11:23:08;102514.64;;;9.38;51.06
74790;BME280;63318;52.406;13.416;2023-03-01T11:25:40;102513.05;;;9.38;49.96
74790;BME280;63318;52.406;13.416;2023-03-01T11:28:14;102507.25;;;9.44;50.32
74790;BME280;63318;52.406;13.416;2023-03-01T11:30:49;102503.94;;;9.54;48.90
74790;BME280;63318;52.406;13.416;2023-03-01T11:33:24;102504.63;;;9.66;49.55
74790;BME280;63318;52.406;13.416;2023-03-01T11:36:04;102498.44;;;9.76;47.60
74790;BME280;63318;52.406;13.416;2023-03-01T11:38:35;102493.47;;;9.84;46.56
74790;BME280;63318;52.406;13.416;2023-03-01T11:41:07;102496.59;;;9.91;48.14
74790;BME280;63318;52.406;13.416;2023-03-01T11:43:41;102495.08;;;9.99;47.23
74790;BME280;63318;52.406;13.416;2023-03-01T11:46:40;102496.70;;;10.04;48.13
74790;BME280;63318;52.406;13.416;2023-03-01T11:49:31;102494.97;;;10.13;48.03
74790;BME280;63318;52.406;13.416;2023-03-01T11:52:07;102496.86;;;10.21;49.26
74790;BME280;63318;52.406;13.416;2023-03-01T11:54:49;102498.88;;;10.25;48.58
74790;BME280;63318;52.406;13.416;2023-03-01T11:57:39;102499.86;;;10.32;48.65
74790;BME280;63318;52.406;13.416;2023-03-01T12:00:23;102499.92;;;10.39;48.59
74790;BME280;63318;52.406;13.416;2023-03-01T12:03:19;102497.05;;;10.44;48.75
74790;BME280;63318;52.406;13.416;2023-03-01T12:06:03;102495.98;;;10.48;48.51
74790;BME280;63318;52.406;13.416;2023-03-01T12:08:37;102493.45;;;10.49;47.73
74790;BME280;63318;52.406;13.416;2023-03-01T12:11:19;102489.58;;;10.48;46.63
74790;BME280;63318;52.406;13.416;2023-03-01T12:14:12;102486.13;;;10.49;48.03
74790;BME280;63318;52.406;13.416;2023-03-01T12:19:54;102477.15;;;10.46;46.10
74790;BME280;63318;52.406;13.416;2023-03-01T12:22:34;102474.82;;;10.52;45.60
74790;BME280;63318;52.406;13.416;2023-03-01T12:25:24;102468.52;;;10.57;44.93
74790;BME280;63318;52.406;13.416;2023-03-01T12:28:09;102465.56;;;10.58;44.32
74790;BME280;63318;52.406;13.416;2023-03-01T12:30:53;102464.82;;;10.58;44.12
74790;BME280;63318;52.406;13.416;2023-03-01T12:33:34;102462.25;;;10.55;46.31
74790;BME280;63318;52.406;13.416;2023-03-01T12:36:27;102462.85;;;10.51;45.69
74790;BME280;63318;52.406;13.416;2023-03-01T12:39:09;102454.06;;;10.47;45.30
74790;BME280;63318;52.406;13.416;2023-03-01T12:41:48;102443.27;;;10.52;44.46
74790;BME280;63318;52.406;13.416;2023-03-01T12:44:31;102438.45;;;10.63;45.31
74790;BME280;63318;52.406;13.416;2023-03-01T12:47:13;102432.95;;;10.70;45.07
74790;BME280;63318;52.406;13.416;2023-03-01T12:49:48;102429.39;;;10.77;44.48
74790;BME280;63318;52.406;13.416;2023-03-01T12:52:20;102429.70;;;10.81;43.49
74790;BME280;63318;52.406;13.416;2023-03-01T12:54:52;102428.78;;;10.85;44.57
74790;BME280;63318;52.406;13.416;2023-03-01T12:57:26;102426.04;;;10.91;44.36
74790;BME280;63318;52.406;13.416;2023-03-01T13:00:05;102417.49;;;10.99;43.53
74790;BME280;63318;52.406;13.416;2023-03-01T13:02:44;102415.77;;;11.05;44.57
74790;BME280;63318;52.406;13.416;2023-03-01T13:05:29;102409.73;;;11.06;43.49
74790;BME280;63318;52.406;13.416;2023-03-01T13:08:07;102406.51;;;11.06;42.18
74790;BME280;63318;52.406;13.416;2023-03-01T13:10:43;102405.77;;;11.09;42.05
74790;BME280;63318;52.406;13.416;2023-03-01T13:13:20;102405.00;;;11.10;41.24